createdAt,value
2023-04-16T00:00:21.491Z,23.88
2023-04-16T00:01:21.512Z,23.85
2023-04-16T00:02:21.765Z,23.82
2023-04-16T00:03:21.761Z,23.86
2023-04-16T00:04:21.641Z,23.87
2023-04-16T00:05:21.581Z,23.85
2023-04-16T00:06:21.590Z,23.90
2023-04-16T00:07:21.595Z,23.84
2023-04-16T00:08:21.637Z,23.86
2023-04-16T00:09:21.635Z,23.87
2023-04-16T00:10:21.662Z,23.92
2023-04-16T00:11:21.647Z,23.86
2023-04-16T00:12:21.654Z,23.87
2023-04-16T00:13:21.664Z,23.84
2023-04-16T00:14:21.680Z,23.82
2023-04-16T00:15:22.021Z,23.90
2023-04-16T00:16:22.123Z,23.92
2023-04-16T00:17:21.754Z,23.89
2023-04-16T00:18:21.721Z,23.85
2023-04-16T00:19:21.717Z,23.83
2023-04-16T00:20:21.712Z,23.86
2023-04-16T00:21:21.740Z,23.89
2023-04-16T00:22:21.731Z,23.84
2023-04-16T00:23:21.735Z,23.89
2023-04-16T00:24:21.789Z,23.86
2023-04-16T00:25:21.740Z,23.86
2023-04-16T00:26:21.734Z,23.87
2023-04-16T00:27:21.813Z,23.85
2023-04-16T00:28:21.806Z,23.86
2023-04-16T00:29:21.836Z,23.84
2023-04-16T00:30:21.846Z,23.86
2023-04-16T00:31:21.905Z,23.80
2023-04-16T00:32:21.904Z,23.85
2023-04-16T00:33:21.872Z,23.85
2023-04-16T00:34:21.869Z,23.82
2023-04-16T00:35:21.904Z,23.85
2023-04-16T00:36:21.923Z,23.84
2023-04-16T00:37:21.910Z,23.84
2023-04-16T00:38:21.933Z,23.80
2023-04-16T00:39:21.979Z,23.84
2023-04-16T00:40:21.996Z,23.84
2023-04-16T00:41:21.988Z,23.84
2023-04-16T00:42:21.983Z,23.80
2023-04-16T00:43:22.007Z,23.83
2023-04-16T00:44:22.058Z,23.84
2023-04-16T00:45:22.082Z,23.86
2023-04-16T00:46:22.107Z,23.82
2023-04-16T00:47:22.067Z,23.82
2023-04-16T00:48:22.083Z,23.84
2023-04-16T00:49:22.118Z,23.85
2023-04-16T00:50:22.114Z,23.80
2023-04-16T00:51:22.123Z,23.82
2023-04-16T00:52:22.134Z,23.82
2023-04-16T00:53:22.124Z,23.81
2023-04-16T00:54:22.160Z,23.86
2023-04-16T00:55:22.196Z,23.82
2023-04-16T00:56:22.299Z,23.80
2023-04-16T00:57:22.237Z,23.86
2023-04-16T00:58:22.257Z,23.84
2023-04-16T00:59:22.255Z,23.84
2023-04-16T01:00:22.253Z,23.82
2023-04-16T01:01:22.283Z,23.84
2023-04-16T01:02:22.397Z,23.84
2023-04-16T01:03:22.440Z,23.82
2023-04-16T01:04:22.438Z,23.81
2023-04-16T01:05:22.341Z,23.82
2023-04-16T01:06:22.333Z,23.86
2023-04-16T01:07:22.394Z,23.82
2023-04-16T01:08:22.398Z,23.82
2023-04-16T01:09:22.405Z,23.80
2023-04-16T01:10:22.402Z,23.85
2023-04-16T01:11:22.445Z,23.85
2023-04-16T01:12:22.480Z,23.81
2023-04-16T01:13:22.477Z,23.86
2023-04-16T01:14:22.482Z,23.84
2023-04-16T01:15:22.492Z,23.86
2023-04-16T01:16:22.633Z,23.82
2023-04-16T01:17:22.538Z,23.81
2023-04-16T01:18:22.512Z,23.84
2023-04-16T01:19:22.558Z,23.85
2023-04-16T01:20:22.546Z,23.82
2023-04-16T01:21:22.552Z,23.80
2023-04-16T01:22:22.553Z,23.84
2023-04-16T01:23:22.559Z,23.85
2023-04-16T01:24:22.593Z,23.81
2023-04-16T01:25:22.598Z,23.85
2023-04-16T01:26:22.598Z,23.81
2023-04-16T01:27:22.625Z,23.85
2023-04-16T01:28:22.630Z,23.84
2023-04-16T01:29:22.655Z,23.84
2023-04-16T01:30:22.682Z,23.84
2023-04-16T01:31:22.763Z,23.82
2023-04-16T01:32:22.752Z,23.82
2023-04-16T01:33:22.724Z,23.81
2023-04-16T01:34:22.728Z,23.84
2023-04-16T01:35:22.740Z,23.85
2023-04-16T01:36:22.740Z,23.84
2023-04-16T01:37:22.756Z,23.82
2023-04-16T01:38:22.789Z,23.87
2023-04-16T01:39:22.829Z,23.81
2023-04-16T01:40:22.809Z,23.85
2023-04-16T01:41:22.832Z,23.85
2023-04-16T01:42:22.822Z,23.87
2023-04-16T01:43:22.826Z,23.86
2023-04-16T01:44:22.831Z,23.92
2023-04-16T01:45:22.833Z,23.86
2023-04-16T01:46:22.879Z,23.87
2023-04-16T01:47:22.902Z,23.85
2023-04-16T01:48:22.879Z,23.86
2023-04-16T01:49:22.916Z,23.93
2023-04-16T01:50:22.898Z,23.84
2023-04-16T01:51:22.911Z,23.87
2023-04-16T01:52:22.893Z,23.84
2023-04-16T01:53:22.922Z,23.85
2023-04-16T01:54:22.902Z,23.86
2023-04-16T01:55:22.931Z,23.89
2023-04-16T01:56:22.936Z,23.86
2023-04-16T01:57:22.939Z,23.86
2023-04-16T01:58:22.961Z,23.88
2023-04-16T01:59:22.985Z,23.84
2023-04-16T02:00:22.946Z,23.83
2023-04-16T02:01:23.159Z,23.86
2023-04-16T02:02:23.082Z,23.81
2023-04-16T02:03:23.193Z,23.85
2023-04-16T02:04:23.005Z,23.84
2023-04-16T02:05:23.029Z,23.85
2023-04-16T02:06:23.054Z,23.89
2023-04-16T02:07:23.041Z,23.82
2023-04-16T02:08:23.108Z,23.85
2023-04-16T02:09:23.120Z,23.86
2023-04-16T02:10:23.107Z,23.84
2023-04-16T02:11:23.114Z,23.89
2023-04-16T02:12:23.131Z,23.87
2023-04-16T02:13:23.144Z,23.86
2023-04-16T02:14:23.146Z,23.84
2023-04-16T02:15:23.168Z,23.87
2023-04-16T02:16:23.211Z,23.87
2023-04-16T02:17:23.196Z,23.86
2023-04-16T02:18:23.178Z,23.86
2023-04-16T02:19:23.198Z,23.86
2023-04-16T02:20:23.219Z,23.86
2023-04-16T02:21:23.216Z,23.87
2023-04-16T02:22:23.226Z,23.81
2023-04-16T02:23:23.214Z,23.87
2023-04-16T02:24:23.243Z,23.84
2023-04-16T02:25:23.255Z,23.85
2023-04-16T02:26:23.308Z,23.87
2023-04-16T02:27:23.285Z,23.90
2023-04-16T02:28:23.301Z,23.89
2023-04-16T02:29:23.309Z,23.84
2023-04-16T02:30:23.347Z,23.85
2023-04-16T02:31:23.435Z,23.82
2023-04-16T02:32:23.377Z,23.86
2023-04-16T02:33:23.367Z,23.84
2023-04-16T02:34:23.394Z,23.85
2023-04-16T02:35:23.425Z,23.82
2023-04-16T02:36:23.446Z,23.82
2023-04-16T02:37:23.441Z,23.87
2023-04-16T02:38:23.434Z,23.89
2023-04-16T02:39:23.477Z,23.84
2023-04-16T02:40:23.473Z,23.82
2023-04-16T02:41:23.460Z,23.87
2023-04-16T02:42:23.500Z,23.84
2023-04-16T02:43:23.502Z,23.84
2023-04-16T02:44:23.544Z,23.85
2023-04-16T02:45:23.549Z,23.80
2023-04-16T02:46:23.575Z,23.86
2023-04-16T02:47:23.617Z,23.89
2023-04-16T02:48:23.576Z,23.86
2023-04-16T02:49:23.605Z,23.85
2023-04-16T02:50:23.600Z,23.85
2023-04-16T02:51:23.629Z,23.89
2023-04-16T02:52:23.642Z,23.84
2023-04-16T02:53:23.675Z,23.85
2023-04-16T02:54:23.716Z,23.86
2023-04-16T02:55:23.709Z,23.85
2023-04-16T02:56:23.744Z,23.81
2023-04-16T02:57:23.742Z,23.86
2023-04-16T02:58:23.774Z,23.85
2023-04-16T02:59:23.781Z,23.82
2023-04-16T03:00:23.787Z,23.84
2023-04-16T03:01:23.842Z,23.87
2023-04-16T03:02:23.919Z,23.83
2023-04-16T03:03:23.860Z,23.93
2023-04-16T03:04:23.872Z,23.87
2023-04-16T03:05:23.853Z,23.89
2023-04-16T03:06:23.875Z,23.89
2023-04-16T03:07:23.916Z,23.84
2023-04-16T03:08:23.903Z,23.89
2023-04-16T03:09:23.932Z,23.87
2023-04-16T03:10:23.925Z,23.86
2023-04-16T03:11:23.937Z,23.85
2023-04-16T03:12:23.936Z,23.89
2023-04-16T03:13:23.990Z,23.87
2023-04-16T03:14:23.983Z,23.92
2023-04-16T03:15:24.012Z,23.92
2023-04-16T03:16:24.160Z,23.92
2023-04-16T03:17:24.079Z,23.93
2023-04-16T03:18:24.060Z,23.86
2023-04-16T03:19:24.086Z,23.87
2023-04-16T03:20:24.118Z,23.91
2023-04-16T03:21:24.132Z,23.90
2023-04-16T03:22:24.148Z,23.92
2023-04-16T03:23:24.137Z,23.92
2023-04-16T03:24:24.209Z,23.90
2023-04-16T03:25:24.207Z,23.90
2023-04-16T03:26:24.199Z,23.91
2023-04-16T03:27:24.230Z,23.94
2023-04-16T03:28:24.266Z,23.91
2023-04-16T03:29:24.252Z,23.90
2023-04-16T03:30:24.268Z,23.91
2023-04-16T03:31:24.292Z,23.92
2023-04-16T03:32:24.309Z,23.97
2023-04-16T03:33:24.318Z,23.92
2023-04-16T03:34:24.357Z,23.95
2023-04-16T03:35:24.305Z,23.89
2023-04-16T03:36:24.386Z,23.90
2023-04-16T03:37:24.365Z,23.93
2023-04-16T03:38:24.354Z,23.93
2023-04-16T03:39:24.391Z,23.90
2023-04-16T03:40:24.386Z,23.94
2023-04-16T03:41:24.457Z,23.92
2023-04-16T03:42:24.425Z,23.94
2023-04-16T03:43:24.496Z,23.93
2023-04-16T03:44:24.493Z,23.93
2023-04-16T03:45:24.506Z,23.91
2023-04-16T03:46:24.578Z,23.95
2023-04-16T03:47:24.561Z,23.93
2023-04-16T03:48:24.536Z,23.92
2023-04-16T03:49:24.619Z,23.93
2023-04-16T03:50:24.584Z,23.94
2023-04-16T03:51:24.620Z,23.93
2023-04-16T03:52:24.622Z,23.96
2023-04-16T03:53:24.666Z,23.92
2023-04-16T03:54:24.672Z,23.97
2023-04-16T03:55:24.647Z,23.95
2023-04-16T03:56:24.651Z,23.92
2023-04-16T03:57:24.700Z,23.97
2023-04-16T03:58:24.718Z,23.91
2023-04-16T03:59:24.703Z,23.97
2023-04-16T04:00:24.733Z,23.99
2023-04-16T04:01:24.739Z,23.98
2023-04-16T04:02:24.833Z,23.94
2023-04-16T04:03:25.049Z,23.95
2023-04-16T04:04:24.953Z,24.03
2023-04-16T04:05:24.829Z,23.98
2023-04-16T04:06:24.855Z,23.99
2023-04-16T04:07:24.873Z,24.01
2023-04-16T04:08:24.864Z,23.99
2023-04-16T04:09:24.943Z,23.98
2023-04-16T04:10:24.909Z,23.94
2023-04-16T04:11:24.946Z,23.99
2023-04-16T04:12:24.967Z,23.94
2023-04-16T04:13:25.000Z,23.99
2023-04-16T04:14:24.986Z,23.97
2023-04-16T04:15:25.025Z,23.98
2023-04-16T04:16:25.025Z,23.98
2023-04-16T04:17:25.155Z,23.98
2023-04-16T04:18:25.052Z,24.01
2023-04-16T04:19:25.085Z,23.94
2023-04-16T04:20:25.082Z,23.98
2023-04-16T04:21:25.124Z,23.98
2023-04-16T04:22:25.146Z,23.97
2023-04-16T04:23:25.137Z,24.01
2023-04-16T04:24:25.172Z,23.94
2023-04-16T04:25:25.188Z,23.98
2023-04-16T04:26:25.259Z,23.98
2023-04-16T04:27:25.282Z,23.97
2023-04-16T04:28:25.260Z,24.01
2023-04-16T04:29:25.252Z,24.02
2023-04-16T04:30:25.255Z,23.95
2023-04-16T04:31:25.321Z,23.93
2023-04-16T04:32:25.385Z,24.03
2023-04-16T04:33:25.354Z,23.97
2023-04-16T04:34:25.382Z,23.97
2023-04-16T04:35:25.366Z,24.01
2023-04-16T04:36:25.409Z,23.99
2023-04-16T04:37:25.428Z,24.02
2023-04-16T04:38:25.467Z,24.01
2023-04-16T04:39:25.466Z,23.97
2023-04-16T04:40:25.447Z,24.03
2023-04-16T04:41:25.462Z,24.02
2023-04-16T04:42:25.561Z,24.01
2023-04-16T04:43:25.524Z,24.01
2023-04-16T04:44:25.562Z,24.01
2023-04-16T04:45:25.697Z,24.02
2023-04-16T04:46:25.615Z,23.99
2023-04-16T04:47:25.622Z,24.02
2023-04-16T04:48:25.575Z,24.04
2023-04-16T04:49:25.598Z,24.02
2023-04-16T04:50:25.605Z,24.07
2023-04-16T04:51:25.632Z,24.02
2023-04-16T04:52:25.651Z,24.01
2023-04-16T04:53:25.660Z,24.03
2023-04-16T04:54:25.665Z,24.03
2023-04-16T04:55:25.712Z,24.01
2023-04-16T04:56:25.686Z,24.02
2023-04-16T04:57:25.711Z,24.01
2023-04-16T04:58:25.723Z,24.05
2023-04-16T04:59:25.766Z,23.98
2023-04-16T05:00:25.744Z,24.02
2023-04-16T05:01:25.800Z,24.03
2023-04-16T05:02:25.831Z,23.95
2023-04-16T05:03:25.867Z,23.98
2023-04-16T05:04:25.822Z,24.02
2023-04-16T05:05:25.874Z,24.06
2023-04-16T05:06:28.319Z,24.03
2023-04-16T05:07:25.849Z,24.02
2023-04-16T05:08:25.795Z,24.02
2023-04-16T05:09:25.791Z,24.02
2023-04-16T05:10:25.782Z,24.04
2023-04-16T05:11:25.792Z,24.02
2023-04-16T05:12:25.754Z,24.07
2023-04-16T05:13:25.720Z,24.02
2023-04-16T05:14:25.733Z,23.99
2023-04-16T05:15:25.693Z,24.03
2023-04-16T05:16:25.703Z,24.05
2023-04-16T05:17:25.683Z,24.03
2023-04-16T05:18:25.636Z,24.04
2023-04-16T05:19:25.635Z,24.02
2023-04-16T05:20:25.591Z,24.03
2023-04-16T05:21:25.599Z,24.04
2023-04-16T05:22:25.575Z,24.10
2023-04-16T05:23:25.576Z,24.02
2023-04-16T05:24:25.556Z,24.06
2023-04-16T05:25:25.557Z,24.06
2023-04-16T05:26:25.501Z,24.06
2023-04-16T05:27:25.502Z,24.04
2023-04-16T05:28:25.480Z,24.02
2023-04-16T05:29:25.460Z,24.04
2023-04-16T05:30:25.444Z,24.06
2023-04-16T05:31:25.584Z,24.04
2023-04-16T05:32:25.468Z,24.05
2023-04-16T05:33:25.432Z,24.04
2023-04-16T05:34:25.398Z,24.06
2023-04-16T05:35:25.362Z,24.07
2023-04-16T05:36:25.371Z,24.02
2023-04-16T05:37:25.374Z,24.06
2023-04-16T05:38:25.340Z,24.07
2023-04-16T05:39:25.333Z,24.03
2023-04-16T05:40:25.336Z,24.08
2023-04-16T05:41:25.348Z,24.09
2023-04-16T05:42:25.276Z,24.05
2023-04-16T05:43:25.261Z,24.03
2023-04-16T05:44:25.223Z,24.04
2023-04-16T05:45:27.458Z,24.07
2023-04-16T05:46:25.202Z,24.02
2023-04-16T05:47:25.226Z,24.06
2023-04-16T05:48:25.179Z,24.08
2023-04-16T05:49:25.129Z,24.06
2023-04-16T05:50:25.143Z,24.04
2023-04-16T05:51:25.132Z,24.06
2023-04-16T05:52:25.098Z,24.03
2023-04-16T05:53:25.070Z,24.07
2023-04-16T05:54:25.061Z,24.07
2023-04-16T05:55:25.048Z,24.06
2023-04-16T05:56:25.030Z,24.04
2023-04-16T05:57:25.001Z,24.09
2023-04-16T05:58:24.986Z,24.08
2023-04-16T05:59:24.955Z,24.08
2023-04-16T06:00:24.975Z,24.07
2023-04-16T06:01:24.940Z,24.07
2023-04-16T06:02:25.107Z,24.10
2023-04-16T06:03:25.015Z,24.07
2023-04-16T06:04:24.902Z,24.10
2023-04-16T06:05:24.920Z,24.07
2023-04-16T06:06:24.841Z,24.05
2023-04-16T06:07:24.829Z,24.10
2023-04-16T06:08:24.827Z,24.07
2023-04-16T06:09:24.785Z,24.11
2023-04-16T06:10:24.768Z,24.11
2023-04-16T06:11:24.799Z,24.14
2023-04-16T06:12:24.723Z,24.11
2023-04-16T06:13:24.711Z,24.09
2023-04-16T06:14:24.708Z,24.11
2023-04-16T06:15:24.697Z,24.08
2023-04-16T06:16:24.695Z,24.14
2023-04-16T06:17:24.678Z,24.10
2023-04-16T06:18:24.651Z,24.13
2023-04-16T06:19:24.651Z,24.11
2023-04-16T06:20:24.623Z,24.08
2023-04-16T06:21:24.607Z,24.13
2023-04-16T06:22:24.598Z,24.17
2023-04-16T06:23:24.564Z,24.13
2023-04-16T06:24:24.587Z,24.14
2023-04-16T06:25:24.529Z,24.10
2023-04-16T06:26:24.548Z,24.14
2023-04-16T06:27:24.558Z,24.18
2023-04-16T06:28:24.522Z,24.19
2023-04-16T06:29:36.951Z,24.13
2023-04-16T06:30:25.528Z,24.11
2023-04-16T06:31:24.568Z,24.13
2023-04-16T06:32:24.529Z,24.18
2023-04-16T06:33:24.496Z,24.19
2023-04-16T06:34:24.472Z,24.15
2023-04-16T06:35:24.438Z,24.20
2023-04-16T06:36:24.432Z,24.19
2023-04-16T06:37:24.450Z,24.21
2023-04-16T06:38:24.410Z,24.19
2023-04-16T06:39:24.371Z,24.23
2023-04-16T06:40:24.378Z,24.20
2023-04-16T06:41:24.370Z,24.22
2023-04-16T06:42:24.360Z,24.22
2023-04-16T06:43:24.377Z,24.23
2023-04-16T06:44:24.355Z,24.22
2023-04-16T06:45:24.338Z,24.22
2023-04-16T06:46:24.344Z,24.27
2023-04-16T06:47:24.300Z,24.20
2023-04-16T06:48:24.333Z,24.24
2023-04-16T06:49:24.351Z,24.22
2023-04-16T06:50:24.362Z,24.23
2023-04-16T06:51:24.365Z,24.27
2023-04-16T06:52:24.400Z,24.27
2023-04-16T06:53:24.473Z,24.27
2023-04-16T06:54:24.445Z,24.31
2023-04-16T06:55:24.476Z,24.26
2023-04-16T06:56:24.497Z,24.23
2023-04-16T06:57:24.503Z,24.23
2023-04-16T06:58:24.528Z,24.24
2023-04-16T06:59:24.580Z,24.28
2023-04-16T07:00:24.570Z,24.30
2023-04-16T07:01:24.689Z,24.27
2023-04-16T07:02:24.660Z,24.28
2023-04-16T07:03:24.810Z,24.28
2023-04-16T07:04:24.811Z,24.30
2023-04-16T07:05:24.684Z,24.35
2023-04-16T07:06:24.699Z,24.32
2023-04-16T07:07:24.723Z,24.32
2023-04-16T07:08:24.749Z,24.31
2023-04-16T07:09:24.752Z,24.35
2023-04-16T07:10:25.023Z,24.31
2023-04-16T07:11:25.152Z,24.35
2023-04-16T07:12:24.998Z,24.28
2023-04-16T07:13:24.801Z,24.31
2023-04-16T07:14:24.811Z,24.31
2023-04-16T07:15:24.826Z,24.34
2023-04-16T07:16:24.872Z,24.31
2023-04-16T07:17:24.913Z,24.34
2023-04-16T07:18:24.892Z,24.35
2023-04-16T07:19:24.915Z,24.38
2023-04-16T07:20:25.022Z,24.34
2023-04-16T07:21:24.945Z,24.37
2023-04-16T07:22:24.967Z,24.36
2023-04-16T07:23:25.009Z,24.34
2023-04-16T07:24:25.032Z,24.38
2023-04-16T07:25:25.017Z,24.34
2023-04-16T07:26:25.057Z,24.38
2023-04-16T07:27:25.076Z,24.39
2023-04-16T07:28:25.098Z,24.39
2023-04-16T07:29:25.069Z,24.41
2023-04-16T07:30:25.190Z,24.36
2023-04-16T07:31:25.149Z,24.40
2023-04-16T07:32:25.249Z,24.35
2023-04-16T07:33:25.223Z,24.44
2023-04-16T07:34:25.220Z,24.43
2023-04-16T07:35:25.237Z,24.40
2023-04-16T07:36:25.234Z,24.41
2023-04-16T07:37:25.254Z,24.43
2023-04-16T07:38:25.274Z,24.41
2023-04-16T07:39:25.283Z,24.41
2023-04-16T07:40:25.291Z,24.46
2023-04-16T07:41:25.349Z,24.45
2023-04-16T07:42:25.322Z,24.47
2023-04-16T07:43:25.336Z,24.44
2023-04-16T07:44:25.362Z,24.46
2023-04-16T07:45:25.394Z,24.39
2023-04-16T07:46:30.371Z,24.39
2023-04-16T07:47:26.465Z,24.38
2023-04-16T07:48:25.413Z,24.44
2023-04-16T07:49:25.397Z,24.40
2023-04-16T07:50:25.380Z,24.36
2023-04-16T07:51:25.337Z,24.40
2023-04-16T07:52:25.295Z,24.41
2023-04-16T07:53:25.314Z,24.40
2023-04-16T07:54:26.318Z,24.40
2023-04-16T07:55:25.344Z,24.39
2023-04-16T07:56:25.346Z,24.36
2023-04-16T07:57:25.367Z,24.38
2023-04-16T07:58:25.389Z,24.40
2023-04-16T07:59:25.749Z,24.36
2023-04-16T08:00:25.465Z,24.40
2023-04-16T08:01:25.433Z,24.39
2023-04-16T08:02:25.648Z,24.39
2023-04-16T08:03:25.693Z,24.38
2023-04-16T08:04:26.194Z,24.40
2023-04-16T08:05:25.556Z,24.40
2023-04-16T08:06:25.516Z,24.33
2023-04-16T08:07:25.526Z,24.38
2023-04-16T08:08:25.543Z,24.35
2023-04-16T08:09:25.513Z,24.38
2023-04-16T08:10:25.557Z,24.38
2023-04-16T08:11:25.560Z,24.36
2023-04-16T08:12:25.602Z,24.37
2023-04-16T08:13:25.613Z,24.38
2023-04-16T08:14:25.619Z,24.32
2023-04-16T08:15:25.641Z,24.34
2023-04-16T08:16:25.712Z,24.33
2023-04-16T08:17:25.741Z,24.33
2023-04-16T08:18:25.646Z,24.32
2023-04-16T08:19:25.683Z,24.40
2023-04-16T08:20:25.728Z,24.32
2023-04-16T08:21:25.733Z,24.31
2023-04-16T08:22:25.783Z,24.38
2023-04-16T08:23:25.796Z,24.33
2023-04-16T08:24:25.799Z,24.32
2023-04-16T08:25:25.789Z,24.31
2023-04-16T08:26:25.789Z,24.33
2023-04-16T08:27:25.833Z,24.31
2023-04-16T08:28:25.847Z,24.34
2023-04-16T08:29:25.888Z,24.33
2023-04-16T08:30:25.866Z,24.30
2023-04-16T08:31:25.942Z,24.30
2023-04-16T08:32:25.976Z,24.27
2023-04-16T08:33:25.910Z,24.31
2023-04-16T08:34:25.935Z,24.27
2023-04-16T08:35:25.966Z,24.30
2023-04-16T08:36:25.953Z,24.31
2023-04-16T08:37:26.006Z,24.33
2023-04-16T08:38:26.029Z,24.28
2023-04-16T08:39:26.052Z,24.30
2023-04-16T08:40:26.073Z,24.28
2023-04-16T08:41:26.104Z,24.30
2023-04-16T08:42:26.108Z,24.30
2023-04-16T08:43:26.123Z,24.30
2023-04-16T08:44:26.128Z,24.31
2023-04-16T08:45:26.148Z,24.30
2023-04-16T08:46:26.206Z,24.31
2023-04-16T08:47:26.204Z,24.30
2023-04-16T08:48:26.209Z,24.30
2023-04-16T08:49:26.234Z,24.28
2023-04-16T08:50:26.278Z,24.28
2023-04-16T08:51:26.252Z,24.31
2023-04-16T08:52:26.270Z,24.28
2023-04-16T08:53:26.312Z,24.30
2023-04-16T08:54:26.306Z,24.28
2023-04-16T08:55:26.340Z,24.27
2023-04-16T08:56:26.368Z,24.28
2023-04-16T08:57:26.354Z,24.24
2023-04-16T08:58:26.417Z,24.27
2023-04-16T08:59:26.396Z,24.27
2023-04-16T09:00:26.424Z,24.31
2023-04-16T09:01:26.471Z,24.22
2023-04-16T09:02:26.729Z,24.28
2023-04-16T09:03:26.591Z,24.27
2023-04-16T09:04:26.605Z,24.24
2023-04-16T09:05:26.510Z,24.27
2023-04-16T09:06:26.540Z,24.28
2023-04-16T09:07:26.543Z,24.30
2023-04-16T09:08:26.584Z,24.26
2023-04-16T09:09:26.601Z,24.28
2023-04-16T09:10:26.599Z,24.27
2023-04-16T09:11:26.644Z,24.27
2023-04-16T09:12:26.670Z,24.29
2023-04-16T09:13:26.705Z,24.29
2023-04-16T09:14:26.693Z,24.31
2023-04-16T09:15:26.723Z,24.28
2023-04-16T09:16:26.776Z,24.28
2023-04-16T09:17:26.772Z,24.28
2023-04-16T09:18:26.821Z,24.28
2023-04-16T09:19:26.825Z,24.28
2023-04-16T09:20:26.848Z,24.33
2023-04-16T09:21:26.860Z,24.26
2023-04-16T09:22:26.883Z,24.31
2023-04-16T09:23:26.870Z,24.31
2023-04-16T09:24:26.897Z,24.30
2023-04-16T09:25:26.939Z,24.35
2023-04-16T09:26:26.946Z,24.31
2023-04-16T09:27:26.930Z,24.33
2023-04-16T09:28:26.957Z,24.31
2023-04-16T09:29:26.957Z,24.34
2023-04-16T09:30:26.990Z,24.31
2023-04-16T09:31:27.050Z,24.29
2023-04-16T09:32:27.076Z,24.29
2023-04-16T09:33:27.075Z,24.29
2023-04-16T09:34:27.068Z,24.30
2023-04-16T09:35:27.091Z,24.31
2023-04-16T09:36:27.128Z,24.28
2023-04-16T09:37:27.138Z,24.25
2023-04-16T09:38:27.156Z,24.21
2023-04-16T09:39:27.206Z,24.28
2023-04-16T09:40:27.302Z,24.26
2023-04-16T09:41:27.210Z,24.25
2023-04-16T09:42:27.243Z,24.29
2023-04-16T09:43:27.250Z,24.23
2023-04-16T09:44:27.294Z,24.26
2023-04-16T09:45:27.294Z,24.22
2023-04-16T09:46:27.421Z,24.23
2023-04-16T09:47:27.365Z,24.25
2023-04-16T09:48:27.342Z,24.22
2023-04-16T09:49:27.398Z,24.21
2023-04-16T09:50:27.375Z,24.22
2023-04-16T09:51:27.380Z,24.24
2023-04-16T09:52:27.434Z,24.20
2023-04-16T09:53:27.443Z,24.20
2023-04-16T09:54:27.418Z,24.22
2023-04-16T09:55:27.482Z,24.17
2023-04-16T09:56:27.460Z,24.20
2023-04-16T09:57:27.508Z,24.20
2023-04-16T09:58:27.540Z,24.22
2023-04-16T09:59:27.547Z,24.22
2023-04-16T10:00:27.601Z,24.22
2023-04-16T10:01:27.577Z,24.21
2023-04-16T10:02:27.679Z,24.21
2023-04-16T10:03:28.327Z,24.17
2023-04-16T10:04:27.687Z,24.16
2023-04-16T10:05:27.643Z,24.19
2023-04-16T10:06:27.618Z,24.21
2023-04-16T10:07:27.615Z,24.13
2023-04-16T10:08:27.651Z,24.20
2023-04-16T10:09:27.663Z,24.17
2023-04-16T10:10:27.668Z,24.16
2023-04-16T10:11:27.702Z,24.14
2023-04-16T10:12:27.683Z,24.14
2023-04-16T10:13:27.693Z,24.18
2023-04-16T10:14:27.681Z,24.15
2023-04-16T10:15:27.710Z,24.12
2023-04-16T10:16:27.769Z,24.14
2023-04-16T10:17:27.753Z,24.15
2023-04-16T10:18:27.759Z,24.14
2023-04-16T10:19:27.765Z,24.14
2023-04-16T10:20:27.812Z,24.14
2023-04-16T10:21:27.813Z,24.14
2023-04-16T10:22:27.794Z,24.15
2023-04-16T10:23:27.818Z,24.10
2023-04-16T10:24:27.851Z,24.15
2023-04-16T10:25:27.833Z,24.18
2023-04-16T10:26:27.905Z,24.16
2023-04-16T10:27:27.860Z,24.13
2023-04-16T10:28:27.883Z,24.17
2023-04-16T10:29:27.896Z,24.17
2023-04-16T10:30:27.938Z,24.11
2023-04-16T10:31:28.029Z,24.12
2023-04-16T10:32:27.948Z,24.17
2023-04-16T10:33:27.926Z,24.15
2023-04-16T10:34:27.960Z,24.17
2023-04-16T10:35:27.984Z,24.19
2023-04-16T10:36:28.033Z,24.14
2023-04-16T10:37:28.009Z,24.19
2023-04-16T10:38:28.007Z,24.24
2023-04-16T10:39:28.015Z,24.22
2023-04-16T10:40:28.047Z,24.21
2023-04-16T10:41:28.034Z,24.23
2023-04-16T10:42:28.058Z,24.18
2023-04-16T10:43:28.046Z,24.22
2023-04-16T10:44:28.070Z,24.18
2023-04-16T10:45:28.051Z,24.21
2023-04-16T10:46:28.123Z,24.23
2023-04-16T10:47:28.089Z,24.23
2023-04-16T10:48:35.587Z,24.24
2023-04-16T10:49:29.046Z,24.23
2023-04-16T10:50:28.066Z,24.22
2023-04-16T10:51:28.010Z,24.26
2023-04-16T10:52:28.019Z,24.19
2023-04-16T10:53:27.991Z,24.25
2023-04-16T10:54:27.975Z,24.23
2023-04-16T10:55:27.976Z,24.22
2023-04-16T10:56:27.955Z,24.24
2023-04-16T10:57:27.925Z,24.22
2023-04-16T10:58:27.886Z,24.26
2023-04-16T10:59:27.909Z,24.23
2023-04-16T11:00:27.864Z,24.25
2023-04-16T11:01:27.878Z,24.24
2023-04-16T11:02:28.057Z,24.25
2023-04-16T11:03:28.001Z,24.24
2023-04-16T11:04:27.898Z,24.25
2023-04-16T11:05:27.758Z,24.26
2023-04-16T11:06:27.761Z,24.25
2023-04-16T11:07:27.752Z,24.28
2023-04-16T11:08:27.708Z,24.24
2023-04-16T11:09:27.724Z,24.30
2023-04-16T11:10:27.693Z,24.25
2023-04-16T11:11:27.736Z,24.26
2023-04-16T11:12:27.810Z,24.32
2023-04-16T11:13:27.739Z,24.25
2023-04-16T11:14:27.747Z,24.25
2023-04-16T11:15:27.765Z,24.23
2023-04-16T11:16:27.867Z,24.21
2023-04-16T11:17:27.835Z,24.24
2023-04-16T11:18:27.814Z,24.24
2023-04-16T11:19:27.792Z,24.20
2023-04-16T11:20:27.853Z,24.20
2023-04-16T11:21:27.808Z,24.26
2023-04-16T11:22:27.829Z,24.23
2023-04-16T11:23:27.873Z,24.25
2023-04-16T11:24:27.870Z,24.26
2023-04-16T11:25:27.911Z,24.28
2023-04-16T11:26:27.910Z,24.26
2023-04-16T11:27:27.905Z,24.26
2023-04-16T11:28:27.918Z,24.21
2023-04-16T11:29:27.938Z,24.19
2023-04-16T11:30:27.954Z,24.24
2023-04-16T11:31:28.045Z,24.24
2023-04-16T11:32:27.980Z,24.24
2023-04-16T11:33:27.986Z,24.23
2023-04-16T11:34:27.996Z,24.24
2023-04-16T11:35:28.015Z,24.24
2023-04-16T11:36:28.107Z,24.22
2023-04-16T11:37:28.019Z,24.23
2023-04-16T11:38:28.002Z,24.22
2023-04-16T11:39:28.001Z,24.23
2023-04-16T11:40:28.022Z,24.23
2023-04-16T11:41:28.051Z,24.23
2023-04-16T11:42:28.097Z,24.22
2023-04-16T11:43:28.049Z,24.30
2023-04-16T11:44:28.074Z,24.33
2023-04-16T11:45:28.061Z,24.23
2023-04-16T11:46:28.134Z,24.26
2023-04-16T11:47:28.151Z,24.23
2023-04-16T11:48:28.106Z,24.24
2023-04-16T11:49:28.111Z,24.22
2023-04-16T11:50:28.122Z,24.27
2023-04-16T11:51:28.134Z,24.26
2023-04-16T11:52:28.141Z,24.26
2023-04-16T11:53:28.161Z,24.23
2023-04-16T11:54:28.162Z,24.26
2023-04-16T11:55:28.156Z,24.28
2023-04-16T11:56:28.170Z,24.27
2023-04-16T11:57:28.157Z,24.24
2023-04-16T11:58:28.219Z,24.23
2023-04-16T11:59:28.185Z,24.24
2023-04-16T12:00:28.205Z,24.24
2023-04-16T12:01:28.202Z,24.22
2023-04-16T12:02:28.315Z,24.24
2023-04-16T12:03:28.463Z,24.26
2023-04-16T12:04:28.288Z,24.26
2023-04-16T12:05:28.244Z,24.26
2023-04-16T12:06:28.290Z,24.24
2023-04-16T12:07:28.269Z,24.21
2023-04-16T12:08:28.247Z,24.21
2023-04-16T12:09:28.281Z,24.23
2023-04-16T12:10:28.295Z,24.19
2023-04-16T12:11:28.301Z,24.18
2023-04-16T12:12:28.354Z,24.21
2023-04-16T12:13:28.312Z,24.17
2023-04-16T12:14:28.325Z,24.18
2023-04-16T12:15:28.353Z,24.17
2023-04-16T12:16:28.432Z,24.18
2023-04-16T12:17:28.404Z,24.22
2023-04-16T12:18:28.391Z,24.19
2023-04-16T12:19:28.369Z,24.17
2023-04-16T12:20:28.395Z,24.17
2023-04-16T12:21:28.408Z,24.17
2023-04-16T12:22:28.396Z,24.19
2023-04-16T12:23:28.421Z,24.15
2023-04-16T12:24:28.394Z,24.20
2023-04-16T12:25:28.437Z,24.18
2023-04-16T12:26:28.439Z,24.18
2023-04-16T12:27:28.468Z,24.17
2023-04-16T12:28:28.465Z,24.23
2023-04-16T12:29:28.465Z,24.18
2023-04-16T12:30:28.491Z,24.19
2023-04-16T12:31:28.535Z,24.16
2023-04-16T12:32:28.526Z,24.14
2023-04-16T12:33:28.482Z,24.14
2023-04-16T12:34:34.674Z,24.20
2023-04-16T12:35:29.483Z,24.15
2023-04-16T12:36:28.480Z,24.18
2023-04-16T12:37:28.461Z,24.15
2023-04-16T12:38:28.446Z,24.15
2023-04-16T12:39:28.438Z,24.13
2023-04-16T12:40:28.443Z,24.14
2023-04-16T12:41:28.358Z,24.13
2023-04-16T12:42:28.355Z,24.13
2023-04-16T12:43:28.333Z,24.13
2023-04-16T12:44:28.314Z,24.16
2023-04-16T12:45:28.307Z,24.12
2023-04-16T12:46:28.279Z,24.20
2023-04-16T12:47:28.277Z,24.16
2023-04-16T12:48:28.234Z,24.21
2023-04-16T12:49:28.238Z,24.17
2023-04-16T12:50:28.195Z,24.20
2023-04-16T12:51:28.202Z,24.23
2023-04-16T12:52:28.162Z,24.23